Corrida de Cori, Argentina
Current Conditions -  °F | °C
As of 5:00 PM on Friday 31 Oct 2014 (Local Time) from SCFA Reporting Station
Broken Clouds Broken Clouds  
Wind Chill: 63°   Ceiling: 1700
Heat Index: 63°   Visibility: 6mi
Dew Point: 52°   Wind: 15mph
Humidity: 68%   Direction: 190°S
Pressure: 29.91"   Gusts: NA
Location:  25.1°S, 68.33°W
Report Text: SCFA 312000Z 19013KT 9999 BKN017 17/11 Q1013 NOSIG
Loading
Personal Weather Stations






























Interactive Weather Map
Tropical Storm Tracking
New forecast layout! Learn more

10-Day Weather Forecast

Advertisements
Track Severe Weather on mobile